sensor_id;sensor_type;location;lat;lon;timestamp;P1;durP1;ratioP1;P2;durP2;ratioP2
48835;SDS011;62581;47.342;7.908;2024-01-27T00:02:10;6.78;;;3.50;;
48835;SDS011;62581;47.342;7.908;2024-01-27T00:04:37;7.45;;;3.45;;
48835;SDS011;62581;47.342;7.908;2024-01-27T00:07:06;5.28;;;2.75;;
48835;SDS011;62581;47.342;7.908;2024-01-27T00:09:33;4.68;;;2.65;;
48835;SDS011;62581;47.342;7.908;2024-01-27T00:12:00;5.85;;;3.03;;
48835;SDS011;62581;47.342;7.908;2024-01-27T00:14:27;6.10;;;3.10;;
48835;SDS011;62581;47.342;7.908;2024-01-27T00:16:54;5.35;;;3.22;;
48835;SDS011;62581;47.342;7.908;2024-01-27T00:19:20;4.82;;;3.40;;
48835;SDS011;62581;47.342;7.908;2024-01-27T00:21:47;4.32;;;3.28;;
48835;SDS011;62581;47.342;7.908;2024-01-27T00:24:16;5.50;;;2.95;;
48835;SDS011;62581;47.342;7.908;2024-01-27T00:26:43;5.18;;;2.92;;
48835;SDS011;62581;47.342;7.908;2024-01-27T00:29:10;7.95;;;3.95;;
48835;SDS011;62581;47.342;7.908;2024-01-27T00:31:37;8.60;;;3.25;;
48835;SDS011;62581;47.342;7.908;2024-01-27T00:34:03;3.78;;;2.83;;
48835;SDS011;62581;47.342;7.908;2024-01-27T00:36:30;6.90;;;3.90;;
48835;SDS011;62581;47.342;7.908;2024-01-27T00:38:57;8.35;;;3.65;;
48835;SDS011;62581;47.342;7.908;2024-01-27T00:41:26;7.18;;;4.10;;
48835;SDS011;62581;47.342;7.908;2024-01-27T00:43:53;9.32;;;4.05;;
48835;SDS011;62581;47.342;7.908;2024-01-27T00:46:20;8.45;;;4.03;;
48835;SDS011;62581;47.342;7.908;2024-01-27T00:48:47;6.00;;;3.65;;
48835;SDS011;62581;47.342;7.908;2024-01-27T00:51:14;7.13;;;3.53;;
48835;SDS011;62581;47.342;7.908;2024-01-27T00:53:41;7.25;;;3.47;;
48835;SDS011;62581;47.342;7.908;2024-01-27T00:56:08;13.00;;;4.03;;
48835;SDS011;62581;47.342;7.908;2024-01-27T00:58:36;5.88;;;2.88;;
48835;SDS011;62581;47.342;7.908;2024-01-27T01:01:03;8.05;;;3.40;;
48835;SDS011;62581;47.342;7.908;2024-01-27T01:03:30;7.63;;;3.13;;
48835;SDS011;62581;47.342;7.908;2024-01-27T01:05:57;6.68;;;3.20;;
48835;SDS011;62581;47.342;7.908;2024-01-27T01:08:24;5.40;;;2.85;;
48835;SDS011;62581;47.342;7.908;2024-01-27T01:10:51;7.50;;;3.22;;
48835;SDS011;62581;47.342;7.908;2024-01-27T01:13:18;6.35;;;2.95;;
48835;SDS011;62581;47.342;7.908;2024-01-27T01:15:46;6.43;;;3.03;;
48835;SDS011;62581;47.342;7.908;2024-01-27T01:18:13;7.32;;;2.95;;
48835;SDS011;62581;47.342;7.908;2024-01-27T01:20:40;10.88;;;3.22;;
48835;SDS011;62581;47.342;7.908;2024-01-27T01:23:07;8.13;;;3.17;;
48835;SDS011;62581;47.342;7.908;2024-01-27T01:25:34;10.60;;;2.92;;
48835;SDS011;62581;47.342;7.908;2024-01-27T01:28:01;7.88;;;2.88;;
48835;SDS011;62581;47.342;7.908;2024-01-27T01:30:28;5.70;;;3.15;;
48835;SDS011;62581;47.342;7.908;2024-01-27T01:32:57;10.18;;;3.20;;
48835;SDS011;62581;47.342;7.908;2024-01-27T01:35:24;5.95;;;3.28;;
48835;SDS011;62581;47.342;7.908;2024-01-27T01:37:51;5.70;;;2.72;;
48835;SDS011;62581;47.342;7.908;2024-01-27T01:40:18;8.30;;;3.33;;
48835;SDS011;62581;47.342;7.908;2024-01-27T01:42:49;6.40;;;3.00;;
48835;SDS011;62581;47.342;7.908;2024-01-27T01:45:17;8.07;;;3.35;;
48835;SDS011;62581;47.342;7.908;2024-01-27T01:47:45;13.07;;;3.55;;
48835;SDS011;62581;47.342;7.908;2024-01-27T01:50:14;10.82;;;3.35;;
48835;SDS011;62581;47.342;7.908;2024-01-27T01:52:41;6.38;;;3.30;;
48835;SDS011;62581;47.342;7.908;2024-01-27T01:55:08;10.38;;;3.88;;
48835;SDS011;62581;47.342;7.908;2024-01-27T01:57:35;10.20;;;3.58;;
48835;SDS011;62581;47.342;7.908;2024-01-27T02:00:03;7.25;;;3.55;;
48835;SDS011;62581;47.342;7.908;2024-01-27T02:02:31;9.27;;;3.30;;
48835;SDS011;62581;47.342;7.908;2024-01-27T02:04:58;8.38;;;3.20;;
48835;SDS011;62581;47.342;7.908;2024-01-27T02:07:26;8.10;;;3.10;;
48835;SDS011;62581;47.342;7.908;2024-01-27T02:09:53;10.30;;;3.58;;
48835;SDS011;62581;47.342;7.908;2024-01-27T02:12:20;12.43;;;3.17;;
48835;SDS011;62581;47.342;7.908;2024-01-27T02:14:47;9.82;;;3.35;;
48835;SDS011;62581;47.342;7.908;2024-01-27T02:17:14;8.02;;;3.38;;
48835;SDS011;62581;47.342;7.908;2024-01-27T02:19:41;10.70;;;3.10;;
48835;SDS011;62581;47.342;7.908;2024-01-27T02:22:08;11.55;;;3.50;;
48835;SDS011;62581;47.342;7.908;2024-01-27T02:24:36;9.85;;;2.95;;
48835;SDS011;62581;47.342;7.908;2024-01-27T02:27:03;8.90;;;3.40;;
48835;SDS011;62581;47.342;7.908;2024-01-27T02:29:30;4.63;;;2.47;;
48835;SDS011;62581;47.342;7.908;2024-01-27T02:31:57;8.63;;;2.47;;
48835;SDS011;62581;47.342;7.908;2024-01-27T02:34:24;7.75;;;3.03;;
48835;SDS011;62581;47.342;7.908;2024-01-27T02:36:51;5.45;;;3.03;;
48835;SDS011;62581;47.342;7.908;2024-01-27T02:39:18;6.45;;;2.60;;
48835;SDS011;62581;47.342;7.908;2024-01-27T02:41:46;5.13;;;2.42;;
48835;SDS011;62581;47.342;7.908;2024-01-27T02:44:13;11.00;;;3.22;;
48835;SDS011;62581;47.342;7.908;2024-01-27T02:46:40;8.60;;;3.17;;
48835;SDS011;62581;47.342;7.908;2024-01-27T02:49:09;8.25;;;3.30;;
48835;SDS011;62581;47.342;7.908;2024-01-27T02:51:35;6.18;;;3.20;;
48835;SDS011;62581;47.342;7.908;2024-01-27T02:54:02;5.50;;;2.70;;
48835;SDS011;62581;47.342;7.908;2024-01-27T02:56:29;11.07;;;2.90;;
48835;SDS011;62581;47.342;7.908;2024-01-27T02:58:58;8.35;;;2.72;;
48835;SDS011;62581;47.342;7.908;2024-01-27T03:01:24;6.60;;;2.80;;
48835;SDS011;62581;47.342;7.908;2024-01-27T03:03:51;5.95;;;2.72;;
48835;SDS011;62581;47.342;7.908;2024-01-27T03:06:18;9.48;;;3.28;;
48835;SDS011;62581;47.342;7.908;2024-01-27T03:08:45;8.98;;;3.25;;
48835;SDS011;62581;47.342;7.908;2024-01-27T03:11:12;8.88;;;3.17;;
48835;SDS011;62581;47.342;7.908;2024-01-27T03:13:39;13.40;;;3.47;;
48835;SDS011;62581;47.342;7.908;2024-01-27T03:16:11;11.30;;;2.70;;
48835;SDS011;62581;47.342;7.908;2024-01-27T03:18:38;7.03;;;2.72;;
48835;SDS011;62581;47.342;7.908;2024-01-27T03:21:05;7.78;;;2.85;;
48835;SDS011;62581;47.342;7.908;2024-01-27T03:23:33;6.90;;;3.10;;
48835;SDS011;62581;47.342;7.908;2024-01-27T03:26:01;7.53;;;2.87;;
48835;SDS011;62581;47.342;7.908;2024-01-27T03:28:29;8.63;;;3.25;;
48835;SDS011;62581;47.342;7.908;2024-01-27T03:30:56;7.43;;;3.25;;
48835;SDS011;62581;47.342;7.908;2024-01-27T03:33:26;7.70;;;3.10;;
48835;SDS011;62581;47.342;7.908;2024-01-27T03:35:54;8.20;;;2.97;;
48835;SDS011;62581;47.342;7.908;2024-01-27T03:38:21;7.20;;;3.40;;
48835;SDS011;62581;47.342;7.908;2024-01-27T03:40:48;9.82;;;3.55;;
48835;SDS011;62581;47.342;7.908;2024-01-27T03:43:15;6.53;;;3.25;;
48835;SDS011;62581;47.342;7.908;2024-01-27T03:45:42;11.82;;;3.85;;
48835;SDS011;62581;47.342;7.908;2024-01-27T03:48:09;12.15;;;3.75;;
48835;SDS011;62581;47.342;7.908;2024-01-27T03:50:37;7.93;;;3.90;;
48835;SDS011;62581;47.342;7.908;2024-01-27T03:53:04;6.22;;;3.13;;
48835;SDS011;62581;47.342;7.908;2024-01-27T03:55:31;7.88;;;3.70;;
48835;SDS011;62581;47.342;7.908;2024-01-27T03:57:59;9.05;;;3.75;;
48835;SDS011;62581;47.342;7.908;2024-01-27T04:00:26;8.93;;;3.10;;
48835;SDS011;62581;47.342;7.908;2024-01-27T04:02:57;6.82;;;3.22;;
48835;SDS011;62581;47.342;7.908;2024-01-27T04:05:24;12.82;;;3.90;;
48835;SDS011;62581;47.342;7.908;2024-01-27T04:07:53;10.18;;;3.92;;
48835;SDS011;62581;47.342;7.908;2024-01-27T04:10:20;10.20;;;4.28;;
48835;SDS011;62581;47.342;7.908;2024-01-27T04:12:47;11.50;;;4.40;;
48835;SDS011;62581;47.342;7.908;2024-01-27T04:15:14;10.23;;;4.13;;
48835;SDS011;62581;47.342;7.908;2024-01-27T04:17:41;10.65;;;4.70;;
48835;SDS011;62581;47.342;7.908;2024-01-27T04:20:09;13.32;;;5.13;;
48835;SDS011;62581;47.342;7.908;2024-01-27T04:22:36;7.72;;;4.05;;
48835;SDS011;62581;47.342;7.908;2024-01-27T04:25:06;11.18;;;4.05;;
48835;SDS011;62581;47.342;7.908;2024-01-27T04:27:36;7.93;;;4.00;;
48835;SDS011;62581;47.342;7.908;2024-01-27T04:30:05;8.32;;;4.03;;
48835;SDS011;62581;47.342;7.908;2024-01-27T04:32:32;8.45;;;4.40;;
48835;SDS011;62581;47.342;7.908;2024-01-27T04:34:59;8.57;;;3.97;;
48835;SDS011;62581;47.342;7.908;2024-01-27T04:37:26;13.05;;;4.53;;
48835;SDS011;62581;47.342;7.908;2024-01-27T04:39:53;7.43;;;3.78;;
48835;SDS011;62581;47.342;7.908;2024-01-27T04:42:21;7.22;;;4.00;;
48835;SDS011;62581;47.342;7.908;2024-01-27T04:44:48;9.60;;;4.13;;
48835;SDS011;62581;47.342;7.908;2024-01-27T04:47:15;10.43;;;5.03;;
48835;SDS011;62581;47.342;7.908;2024-01-27T04:49:43;13.65;;;4.20;;
48835;SDS011;62581;47.342;7.908;2024-01-27T04:52:10;9.43;;;5.00;;
48835;SDS011;62581;47.342;7.908;2024-01-27T04:54:36;11.07;;;4.93;;
48835;SDS011;62581;47.342;7.908;2024-01-27T04:57:04;9.45;;;4.88;;
48835;SDS011;62581;47.342;7.908;2024-01-27T04:59:32;13.98;;;5.35;;
48835;SDS011;62581;47.342;7.908;2024-01-27T05:01:59;10.57;;;5.03;;
48835;SDS011;62581;47.342;7.908;2024-01-27T05:04:26;13.07;;;5.72;;
48835;SDS011;62581;47.342;7.908;2024-01-27T05:06:53;14.02;;;5.65;;
48835;SDS011;62581;47.342;7.908;2024-01-27T05:09:20;10.65;;;5.85;;
48835;SDS011;62581;47.342;7.908;2024-01-27T05:11:47;15.43;;;6.63;;
48835;SDS011;62581;47.342;7.908;2024-01-27T05:14:16;15.85;;;6.15;;
48835;SDS011;62581;47.342;7.908;2024-01-27T05:16:45;14.80;;;5.93;;
48835;SDS011;62581;47.342;7.908;2024-01-27T05:19:12;9.63;;;5.85;;
48835;SDS011;62581;47.342;7.908;2024-01-27T05:21:40;11.20;;;5.90;;
48835;SDS011;62581;47.342;7.908;2024-01-27T05:24:07;9.32;;;4.93;;
48835;SDS011;62581;47.342;7.908;2024-01-27T05:26:34;11.98;;;5.90;;
48835;SDS011;62581;47.342;7.908;2024-01-27T05:29:01;19.60;;;8.48;;
48835;SDS011;62581;47.342;7.908;2024-01-27T05:31:27;13.73;;;6.80;;
48835;SDS011;62581;47.342;7.908;2024-01-27T05:33:56;11.20;;;6.22;;
48835;SDS011;62581;47.342;7.908;2024-01-27T05:38:50;11.00;;;5.82;;
48835;SDS011;62581;47.342;7.908;2024-01-27T05:41:17;14.63;;;7.18;;
48835;SDS011;62581;47.342;7.908;2024-01-27T05:43:44;12.20;;;6.10;;
48835;SDS011;62581;47.342;7.908;2024-01-27T05:46:11;9.73;;;6.60;;
48835;SDS011;62581;47.342;7.908;2024-01-27T05:48:38;10.02;;;6.50;;
48835;SDS011;62581;47.342;7.908;2024-01-27T05:51:06;13.45;;;7.13;;
48835;SDS011;62581;47.342;7.908;2024-01-27T05:53:34;13.18;;;7.05;;
48835;SDS011;62581;47.342;7.908;2024-01-27T05:56:02;15.15;;;7.53;;
48835;SDS011;62581;47.342;7.908;2024-01-27T05:58:29;11.73;;;7.10;;
48835;SDS011;62581;47.342;7.908;2024-01-27T06:00:56;13.15;;;6.82;;
48835;SDS011;62581;47.342;7.908;2024-01-27T06:03:23;11.85;;;7.13;;
48835;SDS011;62581;47.342;7.908;2024-01-27T06:05:51;13.33;;;8.07;;
48835;SDS011;62581;47.342;7.908;2024-01-27T06:08:19;12.63;;;7.43;;
48835;SDS011;62581;47.342;7.908;2024-01-27T06:10:46;14.77;;;7.63;;
48835;SDS011;62581;47.342;7.908;2024-01-27T06:13:13;14.70;;;7.15;;
48835;SDS011;62581;47.342;7.908;2024-01-27T06:15:41;9.63;;;5.80;;
48835;SDS011;62581;47.342;7.908;2024-01-27T06:18:08;12.30;;;8.00;;
48835;SDS011;62581;47.342;7.908;2024-01-27T06:20:35;12.60;;;8.32;;
48835;SDS011;62581;47.342;7.908;2024-01-27T06:23:02;17.65;;;9.48;;
48835;SDS011;62581;47.342;7.908;2024-01-27T06:25:30;19.70;;;9.27;;
48835;SDS011;62581;47.342;7.908;2024-01-27T06:27:57;19.27;;;10.32;;
48835;SDS011;62581;47.342;7.908;2024-01-27T06:30:24;15.00;;;8.52;;
48835;SDS011;62581;47.342;7.908;2024-01-27T06:32:51;14.75;;;8.95;;
48835;SDS011;62581;47.342;7.908;2024-01-27T06:35:17;17.15;;;9.68;;
48835;SDS011;62581;47.342;7.908;2024-01-27T06:37:44;17.45;;;9.52;;
48835;SDS011;62581;47.342;7.908;2024-01-27T06:40:12;20.15;;;9.32;;
48835;SDS011;62581;47.342;7.908;2024-01-27T06:42:41;21.95;;;9.85;;
48835;SDS011;62581;47.342;7.908;2024-01-27T06:45:08;19.67;;;10.13;;
48835;SDS011;62581;47.342;7.908;2024-01-27T06:47:35;20.75;;;10.75;;
48835;SDS011;62581;47.342;7.908;2024-01-27T06:50:02;16.50;;;9.98;;
48835;SDS011;62581;47.342;7.908;2024-01-27T06:52:29;20.77;;;9.88;;
48835;SDS011;62581;47.342;7.908;2024-01-27T06:54:55;17.73;;;9.98;;
48835;SDS011;62581;47.342;7.908;2024-01-27T06:57:23;20.05;;;10.75;;
48835;SDS011;62581;47.342;7.908;2024-01-27T06:59:52;17.63;;;10.20;;
48835;SDS011;62581;47.342;7.908;2024-01-27T07:02:22;18.08;;;10.43;;
48835;SDS011;62581;47.342;7.908;2024-01-27T07:07:16;14.68;;;8.82;;
48835;SDS011;62581;47.342;7.908;2024-01-27T07:09:43;18.90;;;10.15;;
48835;SDS011;62581;47.342;7.908;2024-01-27T07:12:09;17.35;;;10.05;;
48835;SDS011;62581;47.342;7.908;2024-01-27T07:14:36;20.75;;;10.07;;
48835;SDS011;62581;47.342;7.908;2024-01-27T07:17:05;17.80;;;9.35;;
48835;SDS011;62581;47.342;7.908;2024-01-27T07:19:32;23.80;;;10.32;;
48835;SDS011;62581;47.342;7.908;2024-01-27T07:21:59;25.05;;;10.32;;
48835;SDS011;62581;47.342;7.908;2024-01-27T07:24:26;23.75;;;13.60;;
48835;SDS011;62581;47.342;7.908;2024-01-27T07:26:53;19.10;;;10.93;;
48835;SDS011;62581;47.342;7.908;2024-01-27T07:29:19;20.38;;;10.77;;
48835;SDS011;62581;47.342;7.908;2024-01-27T07:31:46;23.13;;;11.98;;
48835;SDS011;62581;47.342;7.908;2024-01-27T07:34:15;20.45;;;11.52;;
48835;SDS011;62581;47.342;7.908;2024-01-27T07:39:10;26.50;;;12.02;;
48835;SDS011;62581;47.342;7.908;2024-01-27T07:41:37;31.05;;;14.13;;
48835;SDS011;62581;47.342;7.908;2024-01-27T07:44:07;26.05;;;13.32;;
48835;SDS011;62581;47.342;7.908;2024-01-27T07:46:35;26.60;;;13.75;;
48835;SDS011;62581;47.342;7.908;2024-01-27T07:49:02;24.75;;;14.05;;
48835;SDS011;62581;47.342;7.908;2024-01-27T07:51:30;24.10;;;13.00;;
48835;SDS011;62581;47.342;7.908;2024-01-27T07:53:57;26.30;;;13.23;;
48835;SDS011;62581;47.342;7.908;2024-01-27T07:56:24;27.60;;;12.48;;
48835;SDS011;62581;47.342;7.908;2024-01-27T07:58:52;29.25;;;12.73;;
48835;SDS011;62581;47.342;7.908;2024-01-27T08:01:19;29.02;;;15.00;;
48835;SDS011;62581;47.342;7.908;2024-01-27T08:03:46;35.33;;;17.75;;
48835;SDS011;62581;47.342;7.908;2024-01-27T08:06:14;29.20;;;15.55;;
48835;SDS011;62581;47.342;7.908;2024-01-27T08:08:44;27.85;;;14.57;;
48835;SDS011;62581;47.342;7.908;2024-01-27T08:11:12;24.90;;;13.27;;
48835;SDS011;62581;47.342;7.908;2024-01-27T08:13:39;22.02;;;11.63;;
48835;SDS011;62581;47.342;7.908;2024-01-27T08:16:06;24.23;;;11.63;;
48835;SDS011;62581;47.342;7.908;2024-01-27T08:18:35;18.42;;;8.48;;
48835;SDS011;62581;47.342;7.908;2024-01-27T08:21:03;21.10;;;11.10;;
48835;SDS011;62581;47.342;7.908;2024-01-27T08:23:30;20.95;;;11.57;;
48835;SDS011;62581;47.342;7.908;2024-01-27T08:25:59;17.98;;;10.63;;
48835;SDS011;62581;47.342;7.908;2024-01-27T08:28:25;19.33;;;10.35;;
48835;SDS011;62581;47.342;7.908;2024-01-27T08:30:52;19.63;;;10.30;;
48835;SDS011;62581;47.342;7.908;2024-01-27T08:33:19;20.77;;;12.20;;
48835;SDS011;62581;47.342;7.908;2024-01-27T08:35:46;32.15;;;17.90;;
48835;SDS011;62581;47.342;7.908;2024-01-27T08:38:14;21.70;;;13.15;;
48835;SDS011;62581;47.342;7.908;2024-01-27T08:40:40;22.27;;;12.10;;
48835;SDS011;62581;47.342;7.908;2024-01-27T08:43:09;18.35;;;11.10;;
48835;SDS011;62581;47.342;7.908;2024-01-27T08:45:36;18.40;;;11.05;;
48835;SDS011;62581;47.342;7.908;2024-01-27T08:48:03;21.42;;;11.57;;
48835;SDS011;62581;47.342;7.908;2024-01-27T08:50:30;20.33;;;11.77;;
48835;SDS011;62581;47.342;7.908;2024-01-27T08:52:57;15.90;;;10.10;;
48835;SDS011;62581;47.342;7.908;2024-01-27T08:55:24;19.05;;;9.10;;
48835;SDS011;62581;47.342;7.908;2024-01-27T08:57:51;13.05;;;7.72;;
48835;SDS011;62581;47.342;7.908;2024-01-27T09:00:19;11.15;;;8.30;;
48835;SDS011;62581;47.342;7.908;2024-01-27T09:05:13;14.98;;;7.40;;
48835;SDS011;62581;47.342;7.908;2024-01-27T09:07:40;12.95;;;7.45;;
48835;SDS011;62581;47.342;7.908;2024-01-27T09:10:08;12.15;;;7.35;;
48835;SDS011;62581;47.342;7.908;2024-01-27T09:12:37;11.93;;;7.05;;
48835;SDS011;62581;47.342;7.908;2024-01-27T09:15:05;13.75;;;7.30;;
48835;SDS011;62581;47.342;7.908;2024-01-27T09:17:34;17.17;;;7.45;;
48835;SDS011;62581;47.342;7.908;2024-01-27T09:20:02;11.63;;;7.32;;
48835;SDS011;62581;47.342;7.908;2024-01-27T09:22:29;11.73;;;6.13;;
48835;SDS011;62581;47.342;7.908;2024-01-27T09:24:56;12.82;;;5.50;;
48835;SDS011;62581;47.342;7.908;2024-01-27T09:27:23;14.00;;;4.93;;
48835;SDS011;62581;47.342;7.908;2024-01-27T09:29:50;12.38;;;5.05;;
48835;SDS011;62581;47.342;7.908;2024-01-27T09:32:17;7.75;;;4.45;;
48835;SDS011;62581;47.342;7.908;2024-01-27T09:34:45;11.38;;;4.65;;
48835;SDS011;62581;47.342;7.908;2024-01-27T09:39:39;11.15;;;4.93;;
48835;SDS011;62581;47.342;7.908;2024-01-27T09:42:06;9.23;;;4.78;;
48835;SDS011;62581;47.342;7.908;2024-01-27T09:44:37;8.75;;;4.05;;
48835;SDS011;62581;47.342;7.908;2024-01-27T09:47:05;9.77;;;4.43;;
48835;SDS011;62581;47.342;7.908;2024-01-27T09:49:33;9.00;;;3.50;;
48835;SDS011;62581;47.342;7.908;2024-01-27T09:52:02;8.48;;;3.83;;
48835;SDS011;62581;47.342;7.908;2024-01-27T09:54:29;6.50;;;3.40;;
48835;SDS011;62581;47.342;7.908;2024-01-27T09:56:56;11.57;;;3.38;;
48835;SDS011;62581;47.342;7.908;2024-01-27T09:59:24;11.27;;;3.85;;
48835;SDS011;62581;47.342;7.908;2024-01-27T10:01:52;8.00;;;3.85;;
48835;SDS011;62581;47.342;7.908;2024-01-27T10:04:19;10.35;;;4.18;;
48835;SDS011;62581;47.342;7.908;2024-01-27T10:06:48;8.25;;;3.65;;
48835;SDS011;62581;47.342;7.908;2024-01-27T10:09:18;11.48;;;4.10;;
48835;SDS011;62581;47.342;7.908;2024-01-27T10:11:45;9.40;;;4.10;;
48835;SDS011;62581;47.342;7.908;2024-01-27T10:14:13;9.52;;;4.63;;
48835;SDS011;62581;47.342;7.908;2024-01-27T10:16:41;9.70;;;3.30;;
48835;SDS011;62581;47.342;7.908;2024-01-27T10:19:11;9.82;;;3.95;;
48835;SDS011;62581;47.342;7.908;2024-01-27T10:21:42;11.45;;;4.70;;
48835;SDS011;62581;47.342;7.908;2024-01-27T10:24:09;8.55;;;3.78;;
48835;SDS011;62581;47.342;7.908;2024-01-27T10:26:37;8.65;;;4.35;;
48835;SDS011;62581;47.342;7.908;2024-01-27T10:29:04;15.02;;;4.05;;
48835;SDS011;62581;47.342;7.908;2024-01-27T10:31:33;7.18;;;3.95;;
48835;SDS011;62581;47.342;7.908;2024-01-27T10:34:01;13.70;;;4.15;;
48835;SDS011;62581;47.342;7.908;2024-01-27T10:39:13;10.07;;;3.80;;
48835;SDS011;62581;47.342;7.908;2024-01-27T10:41:43;7.82;;;3.70;;
48835;SDS011;62581;47.342;7.908;2024-01-27T10:44:12;10.15;;;3.65;;
48835;SDS011;62581;47.342;7.908;2024-01-27T10:46:41;8.45;;;3.60;;
48835;SDS011;62581;47.342;7.908;2024-01-27T10:51:38;7.75;;;3.80;;
48835;SDS011;62581;47.342;7.908;2024-01-27T10:54:09;10.80;;;4.65;;
48835;SDS011;62581;47.342;7.908;2024-01-27T10:56:41;5.93;;;3.67;;
48835;SDS011;62581;47.342;7.908;2024-01-27T10:59:11;9.82;;;4.28;;
48835;SDS011;62581;47.342;7.908;2024-01-27T11:01:41;6.95;;;3.67;;
48835;SDS011;62581;47.342;7.908;2024-01-27T11:04:10;9.05;;;3.92;;
48835;SDS011;62581;47.342;7.908;2024-01-27T11:06:39;9.43;;;3.88;;
48835;SDS011;62581;47.342;7.908;2024-01-27T11:09:09;9.13;;;3.83;;
48835;SDS011;62581;47.342;7.908;2024-01-27T11:11:38;11.32;;;4.15;;
48835;SDS011;62581;47.342;7.908;2024-01-27T11:14:09;8.32;;;4.00;;
48835;SDS011;62581;47.342;7.908;2024-01-27T11:16:36;7.63;;;3.90;;
48835;SDS011;62581;47.342;7.908;2024-01-27T11:19:09;9.45;;;3.90;;
48835;SDS011;62581;47.342;7.908;2024-01-27T11:21:36;8.10;;;3.67;;
48835;SDS011;62581;47.342;7.908;2024-01-27T11:24:12;10.98;;;3.38;;
48835;SDS011;62581;47.342;7.908;2024-01-27T11:26:39;7.32;;;3.40;;
48835;SDS011;62581;47.342;7.908;2024-01-27T11:29:08;9.15;;;3.55;;
48835;SDS011;62581;47.342;7.908;2024-01-27T11:31:44;8.98;;;4.20;;
48835;SDS011;62581;47.342;7.908;2024-01-27T11:34:11;11.77;;;3.83;;
48835;SDS011;62581;47.342;7.908;2024-01-27T11:36:41;9.25;;;3.65;;
48835;SDS011;62581;47.342;7.908;2024-01-27T11:39:22;7.60;;;3.17;;
48835;SDS011;62581;47.342;7.908;2024-01-27T11:41:50;7.78;;;3.35;;
48835;SDS011;62581;47.342;7.908;2024-01-27T11:44:18;5.82;;;2.95;;
48835;SDS011;62581;47.342;7.908;2024-01-27T11:46:45;4.93;;;2.65;;
48835;SDS011;62581;47.342;7.908;2024-01-27T11:49:14;7.60;;;3.28;;
48835;SDS011;62581;47.342;7.908;2024-01-27T11:51:42;8.27;;;3.20;;
48835;SDS011;62581;47.342;7.908;2024-01-27T11:54:09;6.30;;;2.35;;
48835;SDS011;62581;47.342;7.908;2024-01-27T11:56:36;5.30;;;2.45;;
48835;SDS011;62581;47.342;7.908;2024-01-27T11:59:03;9.05;;;3.53;;
48835;SDS011;62581;47.342;7.908;2024-01-27T12:01:31;5.55;;;3.08;;
48835;SDS011;62581;47.342;7.908;2024-01-27T12:03:58;7.70;;;2.75;;
48835;SDS011;62581;47.342;7.908;2024-01-27T12:06:25;5.07;;;2.65;;
48835;SDS011;62581;47.342;7.908;2024-01-27T12:08:53;4.75;;;2.75;;
48835;SDS011;62581;47.342;7.908;2024-01-27T12:11:21;7.22;;;3.10;;
48835;SDS011;62581;47.342;7.908;2024-01-27T12:13:48;6.05;;;2.95;;
48835;SDS011;62581;47.342;7.908;2024-01-27T12:16:15;8.48;;;3.03;;
48835;SDS011;62581;47.342;7.908;2024-01-27T12:18:44;5.55;;;3.00;;
48835;SDS011;62581;47.342;7.908;2024-01-27T12:21:11;5.70;;;2.80;;
48835;SDS011;62581;47.342;7.908;2024-01-27T12:23:48;5.85;;;2.50;;
48835;SDS011;62581;47.342;7.908;2024-01-27T12:26:16;6.15;;;2.80;;
48835;SDS011;62581;47.342;7.908;2024-01-27T12:28:45;4.05;;;2.53;;
48835;SDS011;62581;47.342;7.908;2024-01-27T12:31:13;4.30;;;2.67;;
48835;SDS011;62581;47.342;7.908;2024-01-27T12:36:16;3.53;;;2.55;;
48835;SDS011;62581;47.342;7.908;2024-01-27T12:38:53;5.88;;;2.95;;
48835;SDS011;62581;47.342;7.908;2024-01-27T12:41:20;4.82;;;2.70;;
48835;SDS011;62581;47.342;7.908;2024-01-27T12:43:47;3.53;;;2.58;;
48835;SDS011;62581;47.342;7.908;2024-01-27T12:46:14;3.63;;;2.45;;
48835;SDS011;62581;47.342;7.908;2024-01-27T12:48:42;7.47;;;3.22;;
48835;SDS011;62581;47.342;7.908;2024-01-27T12:51:10;8.18;;;4.03;;
48835;SDS011;62581;47.342;7.908;2024-01-27T12:53:38;4.55;;;2.85;;
48835;SDS011;62581;47.342;7.908;2024-01-27T12:56:07;4.72;;;2.88;;
48835;SDS011;62581;47.342;7.908;2024-01-27T12:58:34;4.75;;;2.72;;
48835;SDS011;62581;47.342;7.908;2024-01-27T13:01:01;8.18;;;2.80;;
48835;SDS011;62581;47.342;7.908;2024-01-27T13:03:28;4.20;;;2.42;;
48835;SDS011;62581;47.342;7.908;2024-01-27T13:05:55;5.95;;;2.83;;
48835;SDS011;62581;47.342;7.908;2024-01-27T13:08:24;3.70;;;2.30;;
48835;SDS011;62581;47.342;7.908;2024-01-27T13:10:51;4.90;;;2.67;;
48835;SDS011;62581;47.342;7.908;2024-01-27T13:13:18;4.15;;;3.10;;
48835;SDS011;62581;47.342;7.908;2024-01-27T13:15:45;7.20;;;2.42;;
48835;SDS011;62581;47.342;7.908;2024-01-27T13:18:12;7.15;;;2.30;;
48835;SDS011;62581;47.342;7.908;2024-01-27T13:20:39;4.55;;;2.53;;
48835;SDS011;62581;47.342;7.908;2024-01-27T13:23:06;5.70;;;2.70;;
48835;SDS011;62581;47.342;7.908;2024-01-27T13:25:34;6.78;;;2.50;;
48835;SDS011;62581;47.342;7.908;2024-01-27T13:28:01;4.63;;;2.72;;
48835;SDS011;62581;47.342;7.908;2024-01-27T13:30:29;3.72;;;2.70;;
48835;SDS011;62581;47.342;7.908;2024-01-27T13:32:56;5.47;;;2.60;;
48835;SDS011;62581;47.342;7.908;2024-01-27T13:35:23;7.40;;;2.70;;
48835;SDS011;62581;47.342;7.908;2024-01-27T13:37:51;6.72;;;2.90;;
48835;SDS011;62581;47.342;7.908;2024-01-27T13:40:18;4.90;;;2.67;;
48835;SDS011;62581;47.342;7.908;2024-01-27T13:42:46;5.65;;;2.70;;
48835;SDS011;62581;47.342;7.908;2024-01-27T13:45:13;4.28;;;2.67;;
48835;SDS011;62581;47.342;7.908;2024-01-27T13:47:40;5.57;;;3.10;;
48835;SDS011;62581;47.342;7.908;2024-01-27T13:50:07;5.22;;;2.80;;
48835;SDS011;62581;47.342;7.908;2024-01-27T13:52:35;5.32;;;2.38;;
48835;SDS011;62581;47.342;7.908;2024-01-27T13:55:02;5.15;;;2.60;;
48835;SDS011;62581;47.342;7.908;2024-01-27T13:57:29;7.13;;;3.27;;
48835;SDS011;62581;47.342;7.908;2024-01-27T13:59:58;4.60;;;2.58;;
48835;SDS011;62581;47.342;7.908;2024-01-27T14:02:25;3.83;;;2.50;;
48835;SDS011;62581;47.342;7.908;2024-01-27T14:04:52;5.25;;;2.58;;
48835;SDS011;62581;47.342;7.908;2024-01-27T14:07:19;4.68;;;2.67;;
48835;SDS011;62581;47.342;7.908;2024-01-27T14:09:47;3.42;;;2.30;;
48835;SDS011;62581;47.342;7.908;2024-01-27T14:12:14;4.07;;;2.85;;
48835;SDS011;62581;47.342;7.908;2024-01-27T14:14:41;5.47;;;2.97;;
48835;SDS011;62581;47.342;7.908;2024-01-27T14:17:09;5.70;;;3.17;;
48835;SDS011;62581;47.342;7.908;2024-01-27T14:19:36;3.55;;;2.67;;
48835;SDS011;62581;47.342;7.908;2024-01-27T14:22:03;7.47;;;3.00;;
48835;SDS011;62581;47.342;7.908;2024-01-27T14:24:31;8.73;;;3.00;;
48835;SDS011;62581;47.342;7.908;2024-01-27T14:26:58;5.95;;;2.80;;
48835;SDS011;62581;47.342;7.908;2024-01-27T14:29:25;6.03;;;2.90;;
48835;SDS011;62581;47.342;7.908;2024-01-27T14:31:52;5.60;;;2.90;;
48835;SDS011;62581;47.342;7.908;2024-01-27T14:34:21;5.38;;;2.72;;
48835;SDS011;62581;47.342;7.908;2024-01-27T14:36:48;9.13;;;3.20;;
48835;SDS011;62581;47.342;7.908;2024-01-27T14:39:15;7.82;;;3.17;;
48835;SDS011;62581;47.342;7.908;2024-01-27T14:41:42;5.65;;;2.42;;
48835;SDS011;62581;47.342;7.908;2024-01-27T14:44:09;5.00;;;2.42;;
48835;SDS011;62581;47.342;7.908;2024-01-27T14:46:36;4.47;;;2.42;;
48835;SDS011;62581;47.342;7.908;2024-01-27T14:49:05;3.75;;;2.40;;
48835;SDS011;62581;47.342;7.908;2024-01-27T14:51:34;4.15;;;2.30;;
48835;SDS011;62581;47.342;7.908;2024-01-27T14:54:01;5.63;;;2.42;;
48835;SDS011;62581;47.342;7.908;2024-01-27T14:56:29;6.40;;;2.95;;
48835;SDS011;62581;47.342;7.908;2024-01-27T14:58:56;6.43;;;3.53;;
48835;SDS011;62581;47.342;7.908;2024-01-27T15:01:23;7.25;;;3.58;;
48835;SDS011;62581;47.342;7.908;2024-01-27T15:06:18;5.60;;;3.90;;